Wednesday, July 23, 2014
03:39 UTC
  |  Log In   |  Register Free
Airport Search:

De Kalb County Airport
(KGWB)

De Kalb County Airport Diagram
No Airport Diagram Available

FAA data valid effective May 29, 2014 until July 24, 2014 (unless otherwise noted).

 
 
 
 
 
 
 
 
 
 
 
 
 
 

Current Aviation Weather for De Kalb County Airport (KGWB)

The most recent METAR observation for KGWB was updated at: 0235 UTC
METAR Summary (Translated METAR)
KGWB
230235Z AUTO 23003KT 10SM SCT070 26/18 A3000 RMK AO2
KFWA
(20.6 nm SW from KGWB)
230154Z 21006KT 9SM FEW085 BKN250 25/19 A3000 RMK AO2 SLP153 T02500194
TAF Summary (Translated TAF)
KFWA
(20.6 nm SW from KGWB)
221720Z 2218/2318 21015KT P6SM SCT040 FM222300 22008KT P6SM SCT080 BKN250 FM231000 32012KT P6SM OVC025 FM231500 32015KT P6SM SCT025
  Airport Weather Conditions for KGWB

 Current Weather at GWB
79° F
Partly Cloudy
Southwest winds at 4.6 mph
GWB NOAA Radar

Pressure: 29.99 in
Humidity: 61%
Wind: Southwest at 4.6 MPH (4 KT)
Dew Point: 64.4°F
Visibility: 10.00 mi


Airport Weather Forecast for KGWB

Translated METAR and TAF for KGWB
Translated METAR for KGWB (0332 UTC 23 July 2014)
found at http://aviationweather.gov/adds/metars/
 
METAR text: KGWB 230315Z AUTO 23003KT 10SM CLR 26/18 A2999 RMK AO2
Conditions at: KGWB (AUBURN DEKALB C , IN, US) observed 0315 UTC 23 July 2014
Temperature: 26.0°C (79°F)
Dewpoint: 18.0°C (64°F) [RH = 61%]
Pressure (altimeter): 29.99 inches Hg (1015.7 mb)
Winds: from the SW (230 degrees) at 3 MPH (3 knots; 1.6 m/s)
Visibility: 10 or more miles (16+ km)
Ceiling: at least 12,000 feet AGL
Clouds: sky clear below 12,000 feet AGL
Weather: automated observation with no human augmentation;
there may or may not be significant weather present at this time
Translated TAF for KGWB

There is no translated TAF available for this airport

Find All Airport Services Find A Hotel Find A Rental Car Find A Golf Course Find A Restaurant $100 Hamburger



FBO's on the Field
FBO Company Facility Photos Services Transportation Aviation Fuel Prices: Prices include tax
Catering Weather Repair Courtesy Rental Type 100LL JetA JetA+ MOGAS 8087
 
Century Aviation

This FBO has not yet been rated
FS:Shell
Last Updated: Jul-15
Login to update fuel prices
SS:
Contact Century AviationMore FBO Information
 
Add another FBO Facility Photos Catering Weather Repair Courtesy Rental Type 100LL JetA JetA+ MOGAS 8087
Services Transportation Aviation Fuel Prices: Prices include tax


GlobalAir.com Airport Resource Center model-print
model-print
model-print
model-print